Flight Track Log - Related Links

Times and Time Zones

All times are in EDT time to prevent confusion due to time zone crossing. See the UPS2844 flight status page for this flight to view local times or setup timezone preferences in your user account.

Time Position Orientation Groundspeed Altitude Reporting Facility
EDT Latitude Longitude Course Direction KTS MPH feet Rate Location/Type
Fri 04:29:09 PM 38.1790 -85.7460 270° West 100 115  Level FlightAware ADS-B
Fri 04:30:01 PM 38.1400 -85.7310 163° South 187 215 2,500 2,700 Climbing FlightAware ADS-B
Fri 04:30:29 PM 38.1120 -85.7350 186° South 217 250 3,600 2,174 Climbing FlightAware ADS-B
Fri 04:31:10 PM 38.0750 -85.7490 197° South 248 285 5,000 2,333 Climbing FlightAware ADS-B
Fri 04:31:23 PM 38.0710 -85.7670 254° West 247 284 5,700 3,447 Climbing FlightAware ADS-B
Fri 04:31:57 PM 38.0760 -85.8170 277° West 243 280 7,700 3,075 Climbing FlightAware ADS-B
Fri 04:32:43 PM 38.0740 -85.8760 268° West 248 285 9,800 2,769 Climbing FlightAware ADS-B
Fri 04:33:02 PM 38.0740 -85.9030 270° West 248 285 10,700 2,000 Climbing FlightAware ADS-B
Fri 04:33:52 PM 38.0690 -85.9880 266° West 310 357 12,100 2,650 Climbing FlightAware ADS-B
Fri 04:35:02 PM 38.0590 -86.1220 265° West 341 392 16,000 3,250 Climbing FlightAware ADS-B
Fri 04:35:52 PM 38.0500 -86.2260 264° West 407 468 18,600 3,438 Climbing FlightAware ADS-B
Fri 04:36:31 PM 38.0450 -86.3160 266° West 362 417 21,100 3,117 Climbing FlightAware ADS-B
Fri 04:37:09 PM 38.0390 -86.4000 265° West 376 433 22,600 2,707 Climbing FlightAware ADS-B
Fri 04:37:53 PM 38.0310 -86.4980 264° West 362 417 24,800 2,514 Climbing FlightAware ADS-B
Fri 04:38:23 PM 38.0260 -86.5600 264° West 376 433 25,700 2,328 Climbing FlightAware ADS-B
Fri 04:39:00 PM 38.0190 -86.6420 264° West 375 432 27,400 2,250 Climbing FlightAware ADS-B
Fri 04:39:35 PM 38.0140 -86.7230 266° West 390 449 28,400 1,403 Climbing FlightAware ADS-B
Fri 04:40:17 PM 38.0070 -86.8180 265° West 408 470 29,200 1,622 Climbing FlightAware ADS-B
Fri 04:40:49 PM 38.0010 -86.8970 265° West 405 466 30,400 2,118 Climbing FlightAware ADS-B
Fri 04:41:25 PM 37.9940 -86.9810 264° West 401 461 31,600 1,792 Climbing FlightAware ADS-B
Fri 04:42:06 PM 37.9860 -87.0740 264° West 401 461 32,700 1,610 Climbing FlightAware ADS-B
Fri 04:42:47 PM 37.9780 -87.1700 264° West 401 461 33,800 1,481 Climbing FlightAware ADS-B
Fri 04:43:23 PM 37.9710 -87.2570 264° West 400 460 34,600 1,282 Climbing FlightAware ADS-B
Fri 04:44:30 PM 37.9580 -87.4100 264° West 397 457 36,000 622 Climbing FlightAware ADS-B
Fri 04:45:38 PM 37.9450 -87.5660 264° West 393 452 36,000  Level FlightAware ADS-B
Fri 04:46:36 PM 37.9340 -87.6980 264° West 393 452 36,000  Level FlightAware ADS-B
Fri 04:47:20 PM 37.9420 -87.7990 276° West 403 464 36,000  Level FlightAware ADS-B
Fri 04:47:56 PM 37.9690 -87.8770 294° West 405 466 36,000  Level FlightAware ADS-B
Fri 04:48:27 PM 37.9940 -87.9460 295° West 406 467 36,000  Level FlightAware ADS-B
Fri 04:49:07 PM 38.0250 -88.0330 294° West 405 466 36,000  Level FlightAware ADS-B
Fri 04:49:35 PM 38.0470 -88.0930 295° West 404 465 36,000  Level FlightAware ADS-B
Fri 04:50:17 PM 38.0780 -88.1800 294° West 403 464 36,000  Level FlightAware ADS-B
Fri 04:50:42 PM 38.0970 -88.2360 293° West 404 465 36,000  Level FlightAware ADS-B
Fri 04:51:21 PM 38.1280 -88.3230 294° West 404 465 36,000  Level FlightAware ADS-B
Fri 04:51:52 PM 38.1510 -88.3880 294° West 405 466 36,000  Level FlightAware ADS-B
Fri 04:52:29 PM 38.1790 -88.4690 294° West 406 467 36,000  Level FlightAware ADS-B
Fri 04:53:09 PM 38.2100 -88.5580 294° West 407 468 36,000  Level FlightAware ADS-B
Fri 04:53:49 PM 38.2410 -88.6460 294° West 408 470 36,000  Level FlightAware ADS-B
Fri 04:54:24 PM 38.2670 -88.7210 294° West 409 471 36,000  Level FlightAware ADS-B
Fri 04:55:13 PM 38.3050 -88.8310 294° West 411 473 36,000  Level FlightAware ADS-B
Fri 04:56:17 PM 38.3510 -88.9690 293° West 409 471 36,000  Level FlightAware ADS-B
Fri 04:57:13 PM 38.3840 -89.1030 287° West 407 468 36,000  Level FlightAware ADS-B
Fri 04:57:57 PM 38.4070 -89.2040 286° West 409 471 36,000  Level FlightAware ADS-B
Fri 04:58:52 PM 38.4350 -89.3300 286° West 410 472 36,000  Level FlightAware ADS-B
Fri 04:59:25 PM 38.4520 -89.4070 286° West 412 474 36,000  Level FlightAware ADS-B
Fri 04:59:58 PM 38.4700 -89.4840 287° West 412 474 36,000  Level FlightAware ADS-B
Fri 05:00:37 PM 38.4910 -89.5750 286° West 413 475 36,000  Level FlightAware ADS-B
Fri 05:01:13 PM 38.5100 -89.6620 286° West 413 475 36,000  Level FlightAware ADS-B
Fri 05:02:07 PM 38.5380 -89.7880 286° West 413 475 36,000  Level FlightAware ADS-B
Fri 05:03:15 PM 38.5730 -89.9460 286° West 413 475 36,000  Level FlightAware ADS-B
Fri 05:03:49 PM 38.5910 -90.0250 286° West 413 475 36,000  Level FlightAware ADS-B
Fri 05:04:54 PM 38.6240 -90.1730 286° West 411 473 36,000  Level FlightAware ADS-B
Fri 05:05:59 PM 38.6570 -90.3260 285° West 410 472 36,000  Level FlightAware ADS-B
Fri 05:06:30 PM 38.6720 -90.3980 285° West 409 471 36,000  Level FlightAware ADS-B
Fri 05:07:29 PM 38.7030 -90.5400 286° West 409 471 36,000  Level FlightAware ADS-B
Fri 05:07:58 PM 38.7180 -90.6100 285° West 409 471 36,000  Level FlightAware ADS-B
Fri 05:08:54 PM 38.7470 -90.7400 286° West 407 468 36,000  Level FlightAware ADS-B
Fri 05:09:30 PM 38.7640 -90.8220 285° West 407 468 36,000  Level FlightAware ADS-B
Fri 05:10:04 PM 38.7810 -90.9010 285° West 408 470 36,000  Level FlightAware ADS-B
Fri 05:10:58 PM 38.8080 -91.0270 285° West 409 471 36,000  Level FlightAware ADS-B
Fri 05:11:34 PM 38.8270 -91.1140 286° West 409 471 36,000  Level FlightAware ADS-B
Fri 05:12:07 PM 38.8430 -91.1910 285° West 410 472 36,000  Level FlightAware ADS-B
Fri 05:12:44 PM 38.8610 -91.2770 285° West 410 472 36,000  Level FlightAware ADS-B
Fri 05:13:16 PM 38.8770 -91.3530 285° West 411 473 36,000  Level FlightAware ADS-B
Fri 05:13:49 PM 38.8930 -91.4280 285° West 410 472 36,000  Level FlightAware ADS-B
Fri 05:14:24 PM 38.9110 -91.5130 285° West 410 472 36,000  Level FlightAware ADS-B
Fri 05:15:05 PM 38.9310 -91.6090 285° West 410 472 36,000  Level FlightAware ADS-B
Fri 05:15:36 PM 38.9450 -91.6800 284° West 410 472 36,000  Level FlightAware ADS-B
Fri 05:16:39 PM 38.9760 -91.8260 285° West 411 473 36,000  Level FlightAware ADS-B
Fri 05:17:15 PM 38.9940 -91.9140 285° West 412 474 36,000  Level FlightAware ADS-B
Fri 05:17:52 PM 39.0120 -92.0010 285° West 412 474 36,000  Level FlightAware ADS-B
Fri 05:18:33 PM 39.0310 -92.0980 284° West 411 473 36,000  Level FlightAware ADS-B
Fri 05:19:05 PM 39.0470 -92.1740 285° West 411 473 36,000  Level FlightAware ADS-B
Fri 05:19:41 PM 39.0640 -92.2590 284° West 411 473 36,000  Level FlightAware ADS-B
Fri 05:20:20 PM 39.0820 -92.3510 284° West 410 472 36,000  Level FlightAware ADS-B
Fri 05:20:52 PM 39.0980 -92.4270 285° West 411 473 36,000  Level FlightAware ADS-B
Fri 05:21:50 PM 39.1250 -92.5640 284° West 411 473 36,000  Level FlightAware ADS-B
Fri 05:22:21 PM 39.1400 -92.6380 285° West 412 474 36,000  Level FlightAware ADS-B
Fri 05:22:57 PM 39.1570 -92.7260 284° West 413 475 36,000  Level FlightAware ADS-B
Fri 05:24:02 PM 39.1870 -92.8790 284° West 414 476 36,000  Level FlightAware ADS-B
Fri 05:25:07 PM 39.2180 -93.0340 285° West 415 478 36,000  Level FlightAware ADS-B
Fri 05:26:02 PM 39.2430 -93.1660 284° West 414 476 36,000  Level FlightAware ADS-B
Fri 05:27:05 PM 39.2720 -93.3200 284° West 414 476 36,000  Level FlightAware ADS-B
Fri 05:27:50 PM 39.2930 -93.4270 284° West 413 475 36,000  Level FlightAware ADS-B
Fri 05:28:26 PM 39.3090 -93.5140 283° West 414 476 36,000  Level FlightAware ADS-B
Fri 05:29:12 PM 39.3300 -93.6240 284° West 413 475 36,000  Level FlightAware ADS-B
Fri 05:30:15 PM 39.3580 -93.7750 284° West 413 475 36,000  Level FlightAware ADS-B
Fri 05:31:03 PM 39.3790 -93.8880 284° West 413 475 36,000  Level FlightAware ADS-B
Fri 05:31:35 PM 39.3940 -93.9670 284° West 414 476 36,000  Level FlightAware ADS-B
Fri 05:32:08 PM 39.4090 -94.0470 284° West 415 478 36,000  Level FlightAware ADS-B
Fri 05:32:53 PM 39.4280 -94.1530 283° West 414 476 36,000  Level FlightAware ADS-B
Fri 05:33:47 PM 39.4520 -94.2850 283° West 412 474 36,000  Level FlightAware ADS-B
Fri 05:34:12 PM 39.4620 -94.3380 284° West 412 474 36,000  Level FlightAware ADS-B
Fri 05:35:20 PM 39.4930 -94.5080 283° West 411 473 36,000  Level FlightAware ADS-B
Fri 05:36:03 PM 39.5110 -94.6110 283° West 410 472 36,000  Level FlightAware ADS-B
Fri 05:37:05 PM 39.5380 -94.7590 283° West 410 472 36,000  Level FlightAware ADS-B
Fri 05:38:05 PM 39.5630 -94.9010 283° West 411 473 36,000  Level FlightAware ADS-B
Fri 05:38:36 PM 39.5760 -94.9750 283° West 411 473 36,000  Level FlightAware ADS-B
Fri 05:39:05 PM 39.5880 -95.0450 283° West 411 473 36,000  Level FlightAware ADS-B
Fri 05:39:33 PM 39.5990 -95.1070 283° West 411 473 36,000  Level FlightAware ADS-B
Fri 05:40:13 PM 39.6170 -95.2080 283° West 411 473 36,000  Level FlightAware ADS-B
Fri 05:40:41 PM 39.6280 -95.2750 282° West 410 472 36,000  Level FlightAware ADS-B
Fri 05:41:15 PM 39.6420 -95.3570 283° West 410 472 36,000  Level FlightAware ADS-B
Fri 05:41:56 PM 39.6590 -95.4580 282° West 409 471 36,000  Level FlightAware ADS-B
Fri 05:42:28 PM 39.6720 -95.5350 282° West 409 471 36,000  Level FlightAware ADS-B
Fri 05:42:59 PM 39.6840 -95.6020 283° West 408 470 36,000  Level FlightAware ADS-B
Fri 05:43:47 PM 39.7040 -95.7220 282° West 409 471 36,000  Level FlightAware ADS-B
Fri 05:44:54 PM 39.7310 -95.8830 282° West 412 474 36,000  Level FlightAware ADS-B
Fri 05:45:54 PM 39.7560 -96.0280 283° West 415 478 36,000  Level FlightAware ADS-B
Fri 05:46:18 PM 39.7640 -96.0840 281° West 415 478 36,000  Level FlightAware ADS-B
Fri 05:47:29 PM 39.7930 -96.2600 282° West 417 480 36,000  Level FlightAware ADS-B
Fri 05:48:03 PM 39.8080 -96.3470 283° West 419 482 36,000  Level FlightAware ADS-B
Fri 05:48:22 PM 39.8090 -96.3560 278° West 419 482 36,000 1,075 Level FlightAware ADS-B
Fri 05:49:10 PM 39.8340 -96.5080 282° West 411 473 37,200 866 Climbing FlightAware ADS-B
Fri 05:49:59 PM 39.8380 -96.5350 281° West 411 473 37,400 593 Climbing FlightAware ADS-B
Fri 05:50:31 PM 39.8620 -96.6870 282° West 413 475 38,000 424 Climbing FlightAware ADS-B
Fri 05:51:24 PM 39.8850 -96.8300 282° West 409 471 38,000  Level FlightAware ADS-B
Fri 05:51:59 PM 39.8990 -96.9160 282° West 405 466 38,000  Level FlightAware ADS-B
Fri 05:52:33 PM 39.9110 -96.9970 281° West 403 464 38,000  Level FlightAware ADS-B
Fri 05:53:17 PM 39.9280 -97.1020 282° West 402 463 38,000  Level FlightAware ADS-B
Fri 05:53:48 PM 39.9390 -97.1750 281° West 399 459 38,000  Level FlightAware ADS-B
Fri 05:54:47 PM 39.9600 -97.3140 281° West 398 458 38,000  Level FlightAware ADS-B
Fri 05:55:18 PM 39.9720 -97.3870 282° West 398 458 38,000  Level FlightAware ADS-B
Fri 05:55:42 PM 39.9738 -97.4463 272° West 398 458 38,000  Level FlightAware ADS-B
Fri 05:56:14 PM 39.9920 -97.5190 288° West 398 458 38,000  Level FlightAware ADS-B
Fri 05:57:09 PM 40.0110 -97.6460 281° West 398 458 38,000  Level FlightAware ADS-B
Fri 05:57:38 PM 40.0210 -97.7140 281° West 401 461 38,000  Level FlightAware ADS-B
Fri 05:58:30 PM 40.0400 -97.8380 281° West 403 464 38,000  Level FlightAware ADS-B
Fri 05:59:05 PM 40.0500 -97.9130 280° West 404 465 38,000  Level FlightAware ADS-B
Fri 05:59:38 PM 40.0643 -98.0038 282° West 407 468 38,000  Level FlightAware ADS-B
Fri 06:00:57 PM 40.0920 -98.1960 281° West 410 472 38,000  Level FlightAware ADS-B
Fri 06:01:16 PM 40.0980 -98.2390 280° West 409 471 38,000  Level FlightAware ADS-B
Fri 06:02:20 PM 40.1160 -98.3720 280° West 409 471 38,000  Level FlightAware ADS-B
Fri 06:02:56 PM 40.1260 -98.4460 280° West 409 471 38,000  Level FlightAware ADS-B
Fri 06:03:45 PM 40.1400 -98.5480 280° West 409 471 38,000  Level FlightAware ADS-B
Fri 06:04:22 PM 40.1500 -98.6250 280° West 409 471 38,000  Level FlightAware ADS-B
Fri 06:04:48 PM 40.1580 -98.6790 281° West 409 471 38,000  Level FlightAware ADS-B
Fri 06:05:22 PM 40.1670 -98.7490 280° West 409 471 38,000  Level FlightAware ADS-B
Fri 06:05:58 PM 40.1770 -98.8240 280° West 409 471 38,000  Level FlightAware ADS-B
Fri 06:06:23 PM 40.1840 -98.8750 280° West 409 471 38,000  Level FlightAware ADS-B
Fri 06:07:01 PM 40.1950 -98.9540 280° West 409 471 38,000  Level FlightAware ADS-B
Fri 06:07:50 PM 40.2080 -99.0560 280° West 409 471 38,000  Level FlightAware ADS-B
Fri 06:08:50 PM 40.2250 -99.1800 280° West 409 471 38,000  Level FlightAware ADS-B
Fri 06:09:14 PM 40.2320 -99.2300 280° West 409 471 38,000  Level FlightAware ADS-B
Fri 06:10:15 PM 40.2490 -99.3570 280° West 409 471 38,000  Level FlightAware ADS-B
Fri 06:11:01 PM 40.2620 -99.4520 280° West 409 471 38,000  Level FlightAware ADS-B
Fri 06:11:32 PM 40.3003 -99.7067 280° West 402 463 38,000  Level Minneapolis Center
Fri 06:12:07 PM 40.3117 -99.7928 280° West 401 461 38,000  Level Denver Center
Fri 06:13:09 PM 40.3336 -99.9597 280° West 398 458 38,000  Level Denver Center
Fri 06:14:11 PM 40.3511 -100.0956 280° West 397 457 38,000  Level Denver Center
Fri 06:15:13 PM 40.3711 -100.2542 279° West 395 455 38,000  Level Denver Center
Fri 06:16:15 PM 40.3883 -100.3889 280° West 391 450 38,000  Level Denver Center
Fri 06:17:17 PM 40.4083 -100.5492 279° West 395 455 38,000  Level Denver Center
Fri 06:18:19 PM 40.4250 -100.6858 279° West 394 453 38,000  Level Denver Center
Fri 06:19:21 PM 40.4414 -100.8239 279° West 397 457 38,000  Level Denver Center
Fri 06:20:23 PM 40.4508 -100.9856 274° West 396 456 38,000  Level Denver Center
Fri 06:26:23 PM 40.4270 -101.8790 274° West 406 467 38,000  Level FlightAware ADS-B
Fri 06:27:09 PM 40.4230 -101.9900 267° West 406 467 38,000  Level FlightAware ADS-B
Fri 06:28:02 PM 40.4180 -102.1200 267° West 407 468 38,000  Level FlightAware ADS-B
Fri 06:28:37 PM 40.4150 -102.2040 267° West 410 472 38,000  Level FlightAware ADS-B
Fri 06:29:25 PM 40.4110 -102.3260 268° West 411 473 38,000  Level FlightAware ADS-B
Fri 06:30:21 PM 40.4060 -102.4680 267° West 412 474 38,000  Level FlightAware ADS-B
Fri 06:30:53 PM 40.4030 -102.5460 267° West 413 475 38,000  Level FlightAware ADS-B
Fri 06:31:45 PM 40.3970 -102.6780 267° West 414 476 38,000  Level FlightAware ADS-B
Fri 06:32:21 PM 40.3940 -102.7690 268° West 417 480 38,000  Level FlightAware ADS-B
Fri 06:33:23 PM 40.3870 -102.9260 267° West 420 483 38,000  Level FlightAware ADS-B
Fri 06:34:19 PM 40.3810 -103.0660 267° West 420 483 38,000  Level FlightAware ADS-B
Fri 06:34:51 PM 40.3780 -103.1500 267° West 422 486 38,000  Level FlightAware ADS-B
Fri 06:35:39 PM 40.3720 -103.2700 266° West 424 488 38,000  Level FlightAware ADS-B
Fri 06:36:33 PM 40.3660 -103.4090 267° West 424 488 38,000  Level FlightAware ADS-B
Fri 06:37:31 PM 40.3630 -103.5460 268° West 424 488 38,000  Level FlightAware ADS-B
Fri 06:38:21 PM 40.3570 -103.6760 267° West 425 489 38,000  Level FlightAware ADS-B
Fri 06:38:41 PM 40.3555 -103.7061 266° West 426 490 38,000  Level FlightAware ADS-B (EHAM / AMS)
Fri 06:39:14 PM 40.3507 -103.8028 266° West 425 489 38,000  Level FlightAware ADS-B (EHAM / AMS)
Fri 06:39:50 PM 40.3457 -103.9033 266° West 424 488 38,000  Level FlightAware ADS-B (EHAM / AMS)
Fri 06:40:24 PM 40.3412 -103.9891 266° West 424 488 38,000  Level FlightAware ADS-B (EHAM / AMS)
Fri 06:40:59 PM 40.3364 -104.0789 266° West 420 483 38,000  Level FlightAware ADS-B (EHAM / AMS)
Fri 06:41:30 PM 40.3325 -104.1546 266° West 419 482 38,000  Level FlightAware ADS-B (EHAM / AMS)
Fri 06:42:12 PM 40.3270 -104.2620 266° West 417 480 38,000  Level FlightAware ADS-B
Fri 06:42:44 PM 40.3220 -104.3430 265° West 417 480 38,000  Level FlightAware ADS-B
Fri 06:42:47 PM 40.3220 -104.3466 270° West 416 479 38,000  Level FlightAware ADS-B (EHAM / AMS)
Fri 06:43:26 PM 40.3165 -104.4445 266° West 416 479 38,000  Level FlightAware ADS-B (EHAM / AMS)
Fri 06:44:03 PM 40.3110 -104.5419 266° West 416 479 38,000  Level FlightAware ADS-B (EHAM / AMS)
Fri 06:44:33 PM 40.3069 -104.6113 266° West 416 479 38,000  Level FlightAware ADS-B (EHAM / AMS)
Fri 06:45:04 PM 40.3025 -104.6868 266° West 416 479 38,000  Level FlightAware ADS-B (EHAM / AMS)
Fri 06:45:37 PM 40.2971 -104.7783 266° West 416 479 38,000  Level FlightAware ADS-B (EHAM / AMS)
Fri 06:46:12 PM 40.2918 -104.8665 266° West 416 479 38,000  Level FlightAware ADS-B (EHAM / AMS)
Fri 06:46:43 PM 40.2872 -104.9439 266° West 416 479 38,000  Level FlightAware ADS-B (EHAM / AMS)
Fri 06:47:14 PM 40.2824 -105.0209 265° West 416 479 38,000  Level FlightAware ADS-B (EHAM / AMS)
Fri 06:47:45 PM 40.2774 -105.1010 265° West 421 484 38,000  Level FlightAware ADS-B (EHAM / AMS)
Fri 06:48:49 PM 40.2680 -105.2476 265° West 422 486 38,000  Level FlightAware ADS-B (EHAM / AMS)
Fri 06:49:19 PM 40.2626 -105.3322 265° West 422 486 38,000  Level FlightAware ADS-B (EHAM / AMS)
Fri 06:49:49 PM 40.2571 -105.4152 265° West 420 483 38,000  Level FlightAware ADS-B (EHAM / AMS)
Fri 06:50:25 PM 40.2515 -105.5006 265° West 422 486 38,000  Level FlightAware ADS-B (EHAM / AMS)
Fri 06:51:13 PM 40.2430 -105.6260 265° West 413 475 38,000  Level FlightAware ADS-B
Fri 06:52:09 PM 40.2340 -105.7630 265° West 409 471 38,000  Level FlightAware ADS-B
Fri 06:52:15 PM 40.2345 -105.7509 87° East 411 473 38,000  Level FlightAware ADS-B (EHAM / AMS)
Fri 06:53:25 PM 40.2200 -105.9520 265° West 415 478 38,000  Level FlightAware ADS-B
Fri 06:53:30 PM 40.2198 -105.9609 269° West 417 480 38,000  Level FlightAware ADS-B (EHAM / AMS)
Fri 06:54:15 PM 40.2110 -106.0760 264° West 419 482 38,000  Level FlightAware ADS-B
Fri 06:54:25 PM 40.2101 -106.0958 267° West 420 483 38,000  Level FlightAware ADS-B (EHAM / AMS)
Fri 06:55:02 PM 40.2049 -106.1663 265° West 419 482 38,000  Level FlightAware ADS-B (EHAM / AMS)
Fri 06:55:33 PM 40.1994 -106.2418 265° West 418 481 38,000  Level FlightAware ADS-B (EHAM / AMS)
Fri 06:56:16 PM 40.1890 -106.3842 265° West 418 481 38,000  Level FlightAware ADS-B (EHAM / AMS)
Fri 06:56:46 PM 40.1835 -106.4563 264° West 418 481 38,000  Level FlightAware ADS-B (EHAM / AMS)
Fri 06:57:34 PM 40.1749 -106.5693 264° West 419 482 38,000  Level FlightAware ADS-B (EHAM / AMS)
Fri 06:58:11 PM 40.1672 -106.6687 264° West 417 480 38,000  Level FlightAware ADS-B (EHAM / AMS)
Fri 06:58:58 PM 40.1587 -106.7775 264° West 417 480 38,000  Level FlightAware ADS-B (EHAM / AMS)
Fri 06:59:37 PM 40.1502 -106.8865 264° West 420 483 38,000  Level FlightAware ADS-B (EHAM / AMS)
Fri 07:00:14 PM 40.1426 -106.9809 264° West 422 486 38,000  Level FlightAware ADS-B
Fri 07:00:44 PM 40.1364 -107.0577 264° West 421 484 38,000  Level FlightAware ADS-B
Fri 07:01:17 PM 40.1297 -107.1389 264° West 420 483 38,000  Level FlightAware ADS-B (KGUC)
Fri 07:01:54 PM 40.1220 -107.2334 264° West 419 482 38,000  Level FlightAware ADS-B
Fri 07:02:24 PM 40.1159 -107.3087 264° West 420 483 38,000  Level FlightAware ADS-B
Fri 07:03:04 PM 40.1076 -107.4105 264° West 422 486 38,000  Level FlightAware ADS-B
Fri 07:03:44 PM 40.0992 -107.5108 264° West 421 484 38,000  Level FlightAware ADS-B
Fri 07:04:24 PM 40.0906 -107.6106 264° West 421 484 38,000  Level FlightAware ADS-B
Fri 07:04:54 PM 40.0839 -107.6883 264° West 422 486 38,000  Level FlightAware ADS-B
Fri 07:05:25 PM 40.0773 -107.7669 264° West 423 487 38,000  Level FlightAware ADS-B
Fri 07:05:55 PM 40.0707 -107.8419 264° West 422 486 38,000  Level FlightAware ADS-B
Fri 07:06:30 PM 40.0654 -107.9299 266° West 417 480 38,000  Level FlightAware ADS-B
Fri 07:07:02 PM 40.0673 -108.0092 272° West 415 478 38,000  Level FlightAware ADS-B
Fri 07:07:32 PM 40.0706 -108.0831 273° West 414 476 38,000  Level FlightAware ADS-B
Fri 07:08:03 PM 40.0742 -108.1634 273° West 416 479 38,000  Level FlightAware ADS-B
Fri 07:08:34 PM 40.0776 -108.2395 273° West 415 478 38,000  Level FlightAware ADS-B
Fri 07:09:08 PM 40.0811 -108.3238 273° West 415 478 38,000  Level FlightAware ADS-B
Fri 07:09:38 PM 40.0841 -108.3982 273° West 415 478 38,000  Level FlightAware ADS-B
Fri 07:10:08 PM 40.0872 -108.4737 273° West 416 479 38,000  Level FlightAware ADS-B
Fri 07:10:38 PM 40.0902 -108.5488 273° West 417 480 38,000  Level FlightAware ADS-B
Fri 07:11:08 PM 40.0931 -108.6214 273° West 417 480 38,000  Level FlightAware ADS-B
Fri 07:11:39 PM 40.0960 -108.6998 273° West 417 480 38,000  Level FlightAware ADS-B
Fri 07:12:09 PM 40.0987 -108.7714 273° West 417 480 38,000  Level FlightAware ADS-B
Fri 07:12:40 PM 40.1020 -108.8548 273° West 417 480 38,000  Level FlightAware ADS-B
Fri 07:13:10 PM 40.1100 -108.9326 278° West 416 479 38,000  Level FlightAware ADS-B
Fri 07:13:42 PM 40.1129 -109.0100 273° West 415 478 38,000  Level FlightAware ADS-B
Fri 07:14:17 PM 40.1108 -109.0891 268° West 414 476 38,000  Level FlightAware ADS-B
Fri 07:14:47 PM 40.1135 -109.1709 273° West 415 478 38,000  Level FlightAware ADS-B
Fri 07:15:48 PM 40.1186 -109.3215 273° West 416 479 38,000  Level FlightAware ADS-B
Fri 07:16:22 PM 40.1214 -109.4058 272° West 415 478 38,000  Level FlightAware ADS-B
Fri 07:17:03 PM 40.1250 -109.5142 273° West 414 476 38,000 -76 Level FlightAware ADS-B
Fri 07:17:41 PM 40.1279 -109.6072 272° West 412 474 37,900 -423 Descending FlightAware ADS-B
Fri 07:18:14 PM 40.1305 -109.6889 272° West 409 471 37,500 -1,031 Descending FlightAware ADS-B
Fri 07:18:45 PM 40.1331 -109.7643 273° West 409 471 36,800 -1,333 Descending FlightAware ADS-B
Fri 07:19:17 PM 40.1355 -109.8461 272° West 411 473 36,100 -1,297 Descending FlightAware ADS-B
Fri 07:19:59 PM 40.1384 -109.9501 272° West 416 479 35,200 -1,325 Descending FlightAware ADS-B
Fri 07:20:34 PM 40.1410 -110.0369 272° West 420 483 34,400 -1,250 Descending FlightAware ADS-B
Fri 07:21:11 PM 40.1437 -110.1324 272° West 421 484 33,700 -1,013 Descending FlightAware ADS-B
Fri 07:21:51 PM 40.1432 -110.2330 270° West 422 486 33,100 -904 Descending FlightAware ADS-B
Fri 07:22:24 PM 40.1418 -110.3148 269° West 419 482 32,600 -952 Descending FlightAware ADS-B
Fri 07:22:54 PM 40.1409 -110.3936 269° West 418 481 32,100 -505 Descending FlightAware ADS-B
Fri 07:23:59 PM 40.1390 -110.5230 269° West 418 481 31,800 -1,277 Descending FlightAware ADS-B
Fri 07:24:28 PM 40.1391 -110.6284 270° West 411 473 30,100 -1,588 Descending FlightAware ADS-B
Fri 07:25:07 PM 40.1380 -110.7225 269° West 424 488 30,000 -72 Descending FlightAware ADS-B
Fri 07:25:51 PM 40.1366 -110.8413 269° West 432 497 30,000  Level FlightAware ADS-B
Fri 07:26:22 PM 40.1356 -110.9236 269° West 432 497 30,000 -1,034 Level FlightAware ADS-B
Fri 07:26:49 PM 40.1346 -110.9930 269° West 417 480 29,000 -3,138 Descending FlightAware ADS-B
Fri 07:27:27 PM 40.1383 -111.0908 273° West 409 471 26,600 -3,739 Descending FlightAware ADS-B
Fri 07:27:58 PM 40.1370 -111.1620 269° West 402 463 24,700 -3,767 Descending FlightAware ADS-B
Fri 07:28:10 PM 40.1367 -111.1970 269° West 391 450 23,900 -3,563 Descending FlightAware ADS-B
Fri 07:28:30 PM 40.1361 -111.2414 269° West 377 434 22,800 -3,800 Descending FlightAware ADS-B
Fri 07:28:40 PM 40.1357 -111.2660 269° West 372 428 22,000 1,729 Descending FlightAware ADS-B
Fri 07:29:29 PM 40.1320 -111.3520 267° West 399 459 24,500 -4,957 Climbing FlightAware ADS-B
Fri 07:29:49 PM 40.1334 -111.3849 273° West 392 451 16,300 -6,684 Descending FlightAware ADS-B
Fri 07:30:48 PM 40.1314 -111.5002 269° West 347 399 15,700 -486 Descending FlightAware ADS-B
Fri 07:31:03 PM 40.1428 -111.5809 281° West 332 382 15,700  Level FlightAware ADS-B
Fri 07:31:23 PM 40.1553 -111.6180 294° West 332 382 15,700  Level FlightAware ADS-B
Fri 07:31:37 PM 40.1643 -111.6410 297° West 328 377 15,700  Level FlightAware ADS-B
Fri 07:31:52 PM 40.1751 -111.6690 297° West 319 367 15,700 -222 Level FlightAware ADS-B
Fri 07:32:04 PM 40.1842 -111.6860 305° West 315 362 15,600 -1,091 Descending FlightAware ADS-B
Fri 07:32:14 PM 40.1940 -111.7023 308° West 312 359 15,300 -1,500 Descending FlightAware ADS-B
Fri 07:32:24 PM 40.2034 -111.7150 314° West 311 358 15,100 -1,737 Descending FlightAware ADS-B
Fri 07:32:52 PM 40.2312 -111.7522 314° West 308 354 14,200 -1,935 Descending FlightAware ADS-B
Fri 07:32:55 PM 40.2351 -111.7580 311° West 308 354 14,100 -1,826 Descending FlightAware ADS-B
Fri 07:33:15 PM 40.2552 -111.7840 315° West 306 352 13,500 -1,778 Descending FlightAware ADS-B
Fri 07:33:22 PM 40.2608 -111.7921 312° West 304 350 13,300 -1,846 Descending FlightAware ADS-B
Fri 07:33:41 PM 40.2809 -111.8180 315° West 303 349 12,700 -2,200 Descending FlightAware ADS-B
Fri 07:33:52 PM 40.2922 -111.8316 317° Northwest 301 346 12,200 -2,800 Descending FlightAware ADS-B
Fri 07:33:56 PM 40.2969 -111.8362 323° Northwest 294 338 12,000 -2,100 Descending FlightAware ADS-B
Fri 07:34:12 PM 40.3144 -111.8540 322° Northwest 300 345 11,500 -1,579 Descending FlightAware ADS-B
Fri 07:34:34 PM 40.3376 -111.8783 321° Northwest 287 330 11,000 -1,313 Descending FlightAware ADS-B
Fri 07:34:44 PM 40.3477 -111.8890 321° Northwest 290 334 10,800 -486 Descending FlightAware ADS-B
Fri 07:35:11 PM 40.3751 -111.9162 323° Northwest 268 308 10,700 -200 Descending FlightAware ADS-B
Fri 07:35:14 PM 40.3781 -111.9190 324° Northwest 268 308 10,700 -1,000 Level FlightAware ADS-B
Fri 07:35:17 PM 40.3814 -111.9210 335° Northwest 266 306 10,600 -600 Descending FlightAware ADS-B
Fri 07:35:24 PM 40.3896 -111.9257 337° Northwest 262 302 10,600 333 Level FlightAware ADS-B
Fri 07:35:35 PM 40.4017 -111.9290 348° North 257 296 10,700 857 Climbing FlightAware ADS-B
Fri 07:35:45 PM 40.4140 -111.9315 351° North 262 302 10,900 353 Climbing FlightAware ADS-B
Fri 07:35:52 PM 40.4233 -111.9320 357° North 268 308 10,800 -947 Descending FlightAware ADS-B
Fri 07:36:23 PM 40.4610 -111.9360 355° North 272 313 10,300 -1,059 Descending FlightAware ADS-B
Fri 07:36:26 PM 40.4659 -111.9365 355° North 273 314 10,200 -2,118 Descending FlightAware ADS-B
Fri 07:36:40 PM 40.4835 -111.9390 354° North 270 311 9,700 -2,000 Descending FlightAware ADS-B
Fri 07:36:47 PM 40.4912 -111.9400 354° North 259 298 9,500 -1,500 Descending FlightAware ADS-B
Fri 07:36:56 PM 40.5021 -111.9410 356° North 259 298 9,300 -1,143 Descending FlightAware ADS-B
Fri 07:37:08 PM 40.5132 -111.9430 352° North 251 289 9,100 -1,385 Descending FlightAware ADS-B
Fri 07:37:09 PM 40.5171 -111.9430 360° North 249 287 9,000 -1,667 Descending FlightAware ADS-B
Fri 07:37:26 PM 40.5363 -111.9460 353° North 234 269 8,600 -1,273 Descending FlightAware ADS-B
Fri 07:37:42 PM 40.5529 -111.9480 355° North 217 250 8,300 -1,135 Descending FlightAware ADS-B
Fri 07:38:03 PM 40.5728 -111.9500 356° North 204 235 7,900 -1,200 Descending FlightAware ADS-B
Fri 07:38:07 PM 40.5762 -111.9501 358° North 203 234 7,800 -1,000 Descending FlightAware ADS-B
Fri 07:38:21 PM 40.5895 -111.9520 354° North 200 230 7,600 -1,000 Descending FlightAware ADS-B
Fri 07:38:37 PM 40.6041 -111.9534 356° North 198 228 7,300 -1,250 Descending FlightAware ADS-B
Fri 07:38:45 PM 40.6117 -111.9540 357° North 198 228 7,100 -1,034 Descending FlightAware ADS-B
Fri 07:39:06 PM 40.6307 -111.9560 355° North 196 226 6,800 -1,021 Descending FlightAware ADS-B
Fri 07:39:32 PM 40.6529 -111.9590 354° North 181 208 6,300 -982 Descending FlightAware ADS-B
Fri 07:40:01 PM 40.6754 -111.9620 354° North 171 197 5,900 -844 Descending FlightAware ADS-B
Fri 07:40:36 PM 40.7002 -111.9640 357° North 156 180 5,400 -824 Descending FlightAware ADS-B
Fri 07:40:52 PM 40.7110 -111.9660 352° North 146 168 5,200 -766 Descending FlightAware ADS-B
Fri 07:41:23 PM 40.7312 -111.9680 356° North 144 166 4,800 -720 Descending FlightAware ADS-B
Fri 07:41:42 PM 40.7444 -111.9700 353° North 142 163 4,600 -800 Descending FlightAware ADS-B
Fri 07:41:53 PM 40.7515 -111.9710 354° North 146 168 4,400 -789 Descending FlightAware ADS-B
Fri 07:42:20 PM 40.7696 -111.9730 355° North 143 165 4,100 -667 Descending FlightAware ADS-B
Fri 07:42:38 PM 40.7815 -111.9740 356° North 140 161 -13,667 Descending FlightAware ADS-B
Fri 07:42:49 PM 40.7877 -111.9746 356° North 100 115  Level FlightAware ADS-B

Login

Don't have an account? Register now (free) for customized features, flight alerts, and more!